Decoded Metar for KSMN (SALMON/LEMHI in ID, USA) (IATA:SMN) | Meteo·Mobile Aviation Weather
aviador You're here:

KSMN Decoded Metar

SALMON/LEMHI in ID, USA
Report Time2019-03-19 17:56:00
UTC Time2019-03-19 18:44:50
Flight Rules vfr VFR
WindCalm
Visibility9999 m
Phenomena:N/A
Clouds:N/A
Expected CloudBase > 2,400 ft AGL from Temp-Dew spread
CeilingNone
Temp02°C (ISA -5)
Dew Point-4°C (65% RH)
AAT-0.5°C
QNH1028 hPa
Density Alt3,015 ft
Elevation4,045 ft
Report Wrong Elevation
Raw Report
KSMN 191756Z AUTO 00000KT 10SM CLR 02/M04 A3037 RMK AO2 SLP316
T00221044 10022 21072 58007 FZRANO=

Extra information for KSMN:More info

Metar Taf Metar & Taf Last 4 Metars F.Rules Stats Wind Profile Meteogram Temp Stats Airport Information Weather charts Add Link Nearby VenuesMetar ALERT Operation Metar Decoded Social comments

AIRNAV info for KSMN